createdAt,value
2018-06-14T00:02:09.842Z,13.30
2018-06-14T00:04:38.192Z,13.20
2018-06-14T00:07:06.520Z,13.20
2018-06-14T00:12:02.830Z,13.10
2018-06-14T00:14:31.140Z,13.10
2018-06-14T00:19:27.476Z,13.10
2018-06-14T00:24:23.842Z,13.00
2018-06-14T00:26:52.158Z,13.00
2018-06-14T00:29:20.464Z,13.00
2018-06-14T00:31:48.758Z,12.90
2018-06-14T00:34:17.086Z,12.90
2018-06-14T00:36:45.368Z,12.90
2018-06-14T00:39:13.694Z,12.80
2018-06-14T00:44:10.051Z,12.70
2018-06-14T00:46:38.366Z,12.70
2018-06-14T00:49:06.622Z,12.70
2018-06-14T00:51:34.948Z,12.70
2018-06-14T00:54:03.234Z,12.60
2018-06-14T00:56:41.690Z,12.50
2018-06-14T00:59:10.020Z,12.50
2018-06-14T01:01:38.324Z,12.50
2018-06-14T01:04:06.619Z,12.50
2018-06-14T01:06:34.924Z,12.50
2018-06-14T01:09:03.247Z,12.50
2018-06-14T01:11:31.560Z,12.40
2018-06-14T01:13:59.853Z,12.40
2018-06-14T01:16:28.126Z,12.30
2018-06-14T01:18:56.460Z,12.40
2018-06-14T01:21:24.775Z,12.40
2018-06-14T01:23:53.082Z,12.40
2018-06-14T01:26:21.417Z,12.40
2018-06-14T01:28:49.712Z,12.50
2018-06-14T01:31:18.057Z,12.40
2018-06-14T01:33:46.350Z,12.40
2018-06-14T01:36:14.644Z,12.30
2018-06-14T01:38:42.972Z,12.30
2018-06-14T01:41:11.280Z,12.20
2018-06-14T01:43:39.556Z,12.20
2018-06-14T01:46:07.852Z,12.10
2018-06-14T01:48:36.151Z,12.10
2018-06-14T01:51:04.452Z,12.10
2018-06-14T01:53:32.766Z,12.10
2018-06-14T01:56:01.048Z,12.20
2018-06-14T01:58:30.008Z,12.20
2018-06-14T02:00:59.683Z,12.20
2018-06-14T02:03:27.958Z,12.20
2018-06-14T02:05:56.257Z,12.20
2018-06-14T02:10:52.606Z,12.20
2018-06-14T02:13:20.922Z,12.20
2018-06-14T02:15:49.204Z,12.20
2018-06-14T02:18:17.499Z,12.20
2018-06-14T02:20:45.794Z,12.20
2018-06-14T02:23:14.115Z,12.20
2018-06-14T02:25:42.412Z,12.20
2018-06-14T02:28:10.712Z,12.20
2018-06-14T02:30:39.030Z,12.20
2018-06-14T02:33:07.338Z,12.20
2018-06-14T02:35:35.626Z,12.30
2018-06-14T02:38:03.924Z,12.30
2018-06-14T02:40:32.239Z,12.20
2018-06-14T02:43:00.538Z,12.20
2018-06-14T02:45:28.890Z,12.20
2018-06-14T02:47:57.194Z,12.30
2018-06-14T02:50:25.480Z,12.30
2018-06-14T02:52:53.837Z,12.20
2018-06-14T02:55:22.122Z,12.20
2018-06-14T02:57:50.454Z,12.20
2018-06-14T03:00:18.832Z,12.20
2018-06-14T03:02:47.132Z,12.20
2018-06-14T03:05:15.532Z,12.20
2018-06-14T03:07:43.828Z,12.10
2018-06-14T03:10:12.156Z,12.10
2018-06-14T03:12:40.459Z,12.10
2018-06-14T03:15:08.752Z,12.10
2018-06-14T03:17:37.050Z,12.10
2018-06-14T03:20:05.416Z,12.10
2018-06-14T03:22:33.740Z,12.10
2018-06-14T03:27:30.072Z,12.10
2018-06-14T03:29:58.391Z,12.10
2018-06-14T03:32:26.677Z,12.10
2018-06-14T03:34:55.017Z,12.10
2018-06-14T03:37:23.325Z,12.10
2018-06-14T03:39:51.637Z,12.10
2018-06-14T03:42:20.020Z,12.10
2018-06-14T03:44:49.233Z,12.10
2018-06-14T03:47:17.569Z,12.10
2018-06-14T03:49:45.883Z,12.20
2018-06-14T03:52:14.250Z,12.20
2018-06-14T03:57:10.628Z,12.30
2018-06-14T03:59:38.969Z,12.30
2018-06-14T04:02:07.266Z,12.30
2018-06-14T04:04:35.587Z,12.30
2018-06-14T04:07:03.909Z,12.40
2018-06-14T04:09:32.258Z,12.40
2018-06-14T04:12:00.588Z,12.40
2018-06-14T04:14:28.887Z,12.50
2018-06-14T04:16:57.169Z,12.50
2018-06-14T04:19:25.471Z,12.50
2018-06-14T04:21:53.795Z,12.60
2018-06-14T04:24:22.161Z,12.70
2018-06-14T04:26:50.497Z,12.70
2018-06-14T04:29:18.827Z,12.80
2018-06-14T04:31:47.138Z,12.80
2018-06-14T04:34:15.429Z,13.00
2018-06-14T04:36:43.772Z,13.00
2018-06-14T04:39:12.059Z,13.10
2018-06-14T04:41:40.361Z,13.20
2018-06-14T04:44:08.697Z,13.20
2018-06-14T04:46:37.021Z,13.30
2018-06-14T04:49:05.474Z,13.30
2018-06-14T04:51:39.236Z,13.30
2018-06-14T04:56:35.619Z,13.30
2018-06-14T04:59:03.934Z,13.40
2018-06-14T05:01:32.275Z,13.40
2018-06-14T05:04:00.624Z,13.40
2018-06-14T05:06:28.963Z,13.40
2018-06-14T05:08:57.298Z,13.40
2018-06-14T05:11:25.622Z,13.40
2018-06-14T05:13:53.944Z,13.40
2018-06-14T05:16:22.262Z,13.40
2018-06-14T05:18:50.604Z,13.40
2018-06-14T05:21:18.928Z,13.40
2018-06-14T05:23:47.604Z,13.40
2018-06-14T05:26:15.904Z,13.40
2018-06-14T05:28:44.249Z,13.50
2018-06-14T05:31:12.538Z,13.50
2018-06-14T05:33:40.838Z,13.50
2018-06-14T05:36:09.155Z,13.60
2018-06-14T05:38:37.453Z,13.60
2018-06-14T05:41:05.770Z,13.70
2018-06-14T05:43:34.087Z,13.80
2018-06-14T05:46:02.364Z,13.90
2018-06-14T05:48:30.648Z,14.00
2018-06-14T05:50:58.944Z,14.10
2018-06-14T05:53:27.516Z,14.10
2018-06-14T05:55:55.818Z,14.20
2018-06-14T05:58:24.160Z,14.20
2018-06-14T06:00:52.450Z,14.30
2018-06-14T06:03:20.788Z,14.40
2018-06-14T06:05:49.092Z,14.40
2018-06-14T06:08:17.412Z,14.40
2018-06-14T06:10:45.704Z,14.50
2018-06-14T06:13:14.021Z,14.50
2018-06-14T06:15:42.364Z,14.60
2018-06-14T06:20:38.761Z,14.70
2018-06-14T06:23:07.109Z,14.70
2018-06-14T06:25:35.398Z,14.80
2018-06-14T06:28:03.703Z,14.80
2018-06-14T06:30:32.042Z,14.90
2018-06-14T06:33:00.672Z,14.90
2018-06-14T06:35:28.986Z,15.00
2018-06-14T06:37:57.314Z,15.10
2018-06-14T06:40:25.658Z,15.10
2018-06-14T06:42:53.964Z,15.10
2018-06-14T06:45:22.312Z,15.20
2018-06-14T06:47:50.612Z,15.30
2018-06-14T06:50:18.930Z,15.40
2018-06-14T06:52:47.227Z,15.50
2018-06-14T06:55:15.498Z,15.60
2018-06-14T06:57:43.808Z,15.60
2018-06-14T07:00:12.111Z,15.70
2018-06-14T07:02:40.396Z,15.80
2018-06-14T07:05:08.750Z,15.80
2018-06-14T07:07:37.022Z,15.90
2018-06-14T07:10:05.451Z,16.00
2018-06-14T07:15:01.843Z,16.00
2018-06-14T07:17:30.132Z,16.20
2018-06-14T07:19:58.490Z,16.20
2018-06-14T07:22:26.818Z,16.20
2018-06-14T07:24:55.114Z,16.20
2018-06-14T07:29:51.487Z,16.30
2018-06-14T07:32:19.808Z,16.40
2018-06-14T07:34:48.228Z,16.40
2018-06-14T07:37:16.516Z,16.40
2018-06-14T07:39:44.831Z,16.50
2018-06-14T07:42:13.161Z,16.50
2018-06-14T07:44:41.456Z,16.60
2018-06-14T07:47:09.772Z,16.60
2018-06-14T07:49:38.123Z,16.70
2018-06-14T07:52:06.458Z,16.80
2018-06-14T07:59:30.892Z,16.90
2018-06-14T08:01:59.214Z,16.90
2018-06-14T08:04:27.536Z,16.90
2018-06-14T08:06:55.847Z,17.00
2018-06-14T08:09:24.185Z,17.10
2018-06-14T08:11:52.475Z,17.10
2018-06-14T08:14:20.800Z,17.10
2018-06-14T08:16:49.344Z,17.10
2018-06-14T08:19:17.779Z,17.10
2018-06-14T08:21:46.136Z,17.30
2018-06-14T08:24:14.427Z,17.30
2018-06-14T08:26:42.706Z,17.40
2018-06-14T08:29:11.015Z,17.50
2018-06-14T08:31:39.309Z,17.50
2018-06-14T08:34:07.644Z,17.50
2018-06-14T08:36:35.957Z,17.60
2018-06-14T08:39:06.092Z,17.70
2018-06-14T08:41:34.434Z,17.70
2018-06-14T08:46:30.808Z,17.70
2018-06-14T08:48:59.112Z,17.80
2018-06-14T08:51:27.457Z,17.80
2018-06-14T08:53:55.777Z,17.80
2018-06-14T08:56:24.176Z,18.00
2018-06-14T08:58:52.459Z,18.10
2018-06-14T09:01:20.774Z,18.20
2018-06-14T09:03:49.117Z,18.20
2018-06-14T09:06:17.418Z,18.20
2018-06-14T09:08:45.777Z,18.30
2018-06-14T09:33:51.301Z,18.30
2018-06-14T09:36:19.684Z,18.50
2018-06-14T09:38:48.002Z,19.10
2018-06-14T09:41:16.344Z,19.10
2018-06-14T09:43:44.747Z,19.20
2018-06-14T09:46:13.080Z,19.30
2018-06-14T09:48:41.370Z,19.20
2018-06-14T09:51:09.702Z,19.10
2018-06-14T09:53:38.017Z,19.20
2018-06-14T09:56:06.418Z,19.30
2018-06-14T09:58:34.706Z,19.30
2018-06-14T10:01:03.038Z,19.30
2018-06-14T10:03:31.358Z,19.40
2018-06-14T10:05:59.963Z,19.40
2018-06-14T10:08:28.315Z,19.40
2018-06-14T10:10:56.639Z,19.30
2018-06-14T10:13:24.937Z,19.30
2018-06-14T10:15:53.262Z,19.30
2018-06-14T10:18:21.599Z,19.30
2018-06-14T10:20:49.915Z,19.30
2018-06-14T10:23:18.217Z,19.40
2018-06-14T10:25:46.527Z,19.40
2018-06-14T10:28:14.838Z,19.40
2018-06-14T10:30:43.131Z,19.40
2018-06-14T10:33:11.649Z,19.40
2018-06-14T10:35:39.969Z,19.40
2018-06-14T10:38:08.320Z,19.40
2018-06-14T10:40:36.643Z,19.50
2018-06-14T10:43:06.023Z,19.60
2018-06-14T10:45:34.817Z,19.80
2018-06-14T10:48:03.191Z,19.90
2018-06-14T10:50:31.511Z,20.00
2018-06-14T10:52:59.817Z,20.10
2018-06-14T10:55:28.863Z,20.20
2018-06-14T10:57:57.217Z,20.40
2018-06-14T11:00:25.624Z,20.60
2018-06-14T11:02:54.096Z,20.60
2018-06-14T11:05:22.426Z,20.70
2018-06-14T11:07:50.727Z,20.70
2018-06-14T11:10:19.054Z,21.00
2018-06-14T11:12:47.483Z,21.10
2018-06-14T11:15:15.992Z,21.30
2018-06-14T11:20:12.429Z,21.30
2018-06-14T11:22:40.782Z,21.20
2018-06-14T11:25:09.114Z,21.20
2018-06-14T11:27:37.476Z,21.40
2018-06-14T11:30:05.991Z,21.50
2018-06-14T11:32:34.276Z,21.70
2018-06-14T11:35:02.588Z,21.70
2018-06-14T11:37:30.902Z,21.70
2018-06-14T11:39:59.274Z,21.60
2018-06-14T11:42:27.584Z,21.60
2018-06-14T11:44:56.062Z,21.60
2018-06-14T11:47:24.371Z,21.60
2018-06-14T11:49:52.785Z,21.50
2018-06-14T11:52:21.115Z,21.40
2018-06-14T11:54:49.422Z,21.40
2018-06-14T11:59:53.028Z,21.50
2018-06-14T12:02:22.042Z,21.50
2018-06-14T12:04:50.996Z,21.60
2018-06-14T12:07:19.350Z,21.60
2018-06-14T12:09:47.670Z,21.40
2018-06-14T12:12:16.864Z,21.40
2018-06-14T12:14:45.330Z,21.40
2018-06-14T12:17:13.686Z,21.40
2018-06-14T12:19:41.989Z,21.30
2018-06-14T12:22:10.360Z,21.40
2018-06-14T12:24:38.686Z,21.40
2018-06-14T12:27:06.978Z,21.40
2018-06-14T12:29:35.303Z,21.40
2018-06-14T12:32:03.644Z,21.70
2018-06-14T12:34:31.953Z,22.00
2018-06-14T12:37:00.317Z,22.10
2018-06-14T12:39:28.687Z,22.10
2018-06-14T12:41:57.006Z,22.10
2018-06-14T12:44:25.308Z,22.20
2018-06-14T12:46:53.593Z,22.20
2018-06-14T12:49:21.936Z,22.00
2018-06-14T12:51:50.247Z,21.80
2018-06-14T12:54:18.584Z,21.90
2018-06-14T12:56:46.932Z,22.10
2018-06-14T12:59:15.256Z,22.00
2018-06-14T13:04:11.782Z,21.70
2018-06-14T13:06:40.084Z,21.70
2018-06-14T13:11:37.389Z,21.80
2018-06-14T13:14:05.695Z,21.80
2018-06-14T13:16:34.035Z,21.80
2018-06-14T13:19:02.338Z,21.70
2018-06-14T13:21:30.684Z,21.60
2018-06-14T13:23:59.053Z,21.70
2018-06-14T13:26:27.364Z,21.70
2018-06-14T13:28:56.161Z,21.60
2018-06-14T13:31:24.739Z,21.70
2018-06-14T13:33:53.115Z,21.60
2018-06-14T13:36:21.527Z,21.50
2018-06-14T13:38:49.856Z,21.50
2018-06-14T13:41:18.254Z,21.50
2018-06-14T13:43:47.137Z,21.50
2018-06-14T13:46:15.501Z,21.60
2018-06-14T13:48:43.877Z,21.60
2018-06-14T13:51:12.174Z,21.50
2018-06-14T13:53:40.572Z,21.50
2018-06-14T13:56:08.916Z,21.50
2018-06-14T13:58:37.241Z,21.40
2018-06-14T14:01:05.655Z,21.20
2018-06-14T14:03:33.899Z,21.10
2018-06-14T14:08:30.305Z,20.80
2018-06-14T14:10:58.683Z,20.60
2018-06-14T14:13:27.015Z,20.40
2018-06-14T14:15:55.323Z,20.30
2018-06-14T14:18:23.651Z,20.10
2018-06-14T14:20:52.041Z,20.00
2018-06-14T14:23:20.383Z,19.80
2018-06-14T14:25:48.700Z,19.70
2018-06-14T14:28:17.008Z,19.60
2018-06-14T14:30:45.334Z,19.40
2018-06-14T14:33:13.660Z,19.20
2018-06-14T14:35:41.940Z,19.10
2018-06-14T14:38:10.268Z,18.90
2018-06-14T14:40:38.595Z,18.90
2018-06-14T14:43:06.917Z,18.80
2018-06-14T14:45:35.233Z,18.70
2018-06-14T14:48:03.583Z,18.60
2018-06-14T14:50:31.917Z,18.50
2018-06-14T14:53:00.280Z,18.40
2018-06-14T14:55:28.617Z,18.50
2018-06-14T14:57:57.107Z,18.40
2018-06-14T15:00:25.485Z,18.40
2018-06-14T15:02:53.820Z,18.20
2018-06-14T15:05:22.173Z,18.20
2018-06-14T15:07:50.458Z,18.20
2018-06-14T15:10:18.843Z,18.20
2018-06-14T15:12:47.181Z,18.20
2018-06-14T15:15:15.577Z,18.20
2018-06-14T15:17:43.975Z,18.10
2018-06-14T15:20:12.331Z,18.00
2018-06-14T15:22:40.664Z,18.00
2018-06-14T15:25:09.005Z,18.00
2018-06-14T15:27:37.285Z,17.90
2018-06-14T15:30:05.625Z,17.80
2018-06-14T15:32:33.943Z,17.70
2018-06-14T15:35:02.273Z,17.70
2018-06-14T15:37:30.736Z,17.60
2018-06-14T15:40:02.601Z,17.60
2018-06-14T15:42:30.963Z,17.60
2018-06-14T15:44:59.321Z,17.60
2018-06-14T15:47:27.736Z,17.60
2018-06-14T15:49:56.080Z,17.50
2018-06-14T15:52:24.434Z,17.30
2018-06-14T15:55:04.157Z,17.40
2018-06-14T15:57:32.514Z,17.20
2018-06-14T16:00:00.911Z,17.20
2018-06-14T16:02:29.259Z,17.20
2018-06-14T16:04:57.593Z,17.20
2018-06-14T16:07:25.912Z,17.20
2018-06-14T16:09:54.265Z,17.20
2018-06-14T16:12:22.601Z,17.30
2018-06-14T16:14:50.951Z,17.30
2018-06-14T16:19:47.423Z,17.30
2018-06-14T16:22:15.755Z,17.30
2018-06-14T16:24:44.115Z,17.20
2018-06-14T16:27:12.429Z,17.20
2018-06-14T16:29:40.767Z,17.10
2018-06-14T16:32:09.115Z,17.10
2018-06-14T16:34:37.497Z,17.20
2018-06-14T16:37:05.843Z,17.20
2018-06-14T16:39:34.193Z,17.20
2018-06-14T16:42:02.545Z,17.20
2018-06-14T16:44:30.863Z,17.20
2018-06-14T16:46:59.192Z,17.10
2018-06-14T16:49:27.518Z,17.10
2018-06-14T16:51:55.852Z,17.00
2018-06-14T16:54:24.173Z,17.00
2018-06-14T16:56:52.549Z,17.00
2018-06-14T16:59:20.924Z,17.10
2018-06-14T17:01:49.265Z,17.00
2018-06-14T17:04:17.608Z,17.00
2018-06-14T17:06:45.933Z,17.00
2018-06-14T17:09:14.313Z,16.90
2018-06-14T17:11:42.655Z,16.80
2018-06-14T17:14:10.984Z,16.90
2018-06-14T17:16:39.285Z,16.80
2018-06-14T17:21:35.812Z,16.80
2018-06-14T17:24:04.152Z,16.80
2018-06-14T17:26:32.464Z,16.80
2018-06-14T17:29:00.856Z,16.80
2018-06-14T17:31:29.173Z,16.90
2018-06-14T17:33:57.483Z,16.90
2018-06-14T17:36:25.766Z,16.90
2018-06-14T17:38:54.078Z,16.90
2018-06-14T17:41:22.454Z,16.90
2018-06-14T17:43:50.773Z,16.80
2018-06-14T17:46:19.127Z,16.80
2018-06-14T17:48:47.487Z,16.80
2018-06-14T17:51:19.215Z,16.80
2018-06-14T17:53:47.584Z,16.80
2018-06-14T17:58:43.877Z,16.90
2018-06-14T18:01:12.221Z,16.90
2018-06-14T18:03:41.157Z,16.90
2018-06-14T18:06:09.471Z,16.80
2018-06-14T18:08:37.825Z,16.80
2018-06-14T18:11:06.134Z,16.80
2018-06-14T18:13:34.465Z,16.90
2018-06-14T18:16:02.747Z,16.80
2018-06-14T18:18:31.074Z,16.80
2018-06-14T18:20:59.623Z,16.90
2018-06-14T18:23:27.933Z,16.90
2018-06-14T18:25:56.248Z,16.90
2018-06-14T18:28:24.589Z,16.90
2018-06-14T18:30:52.909Z,16.90
2018-06-14T18:33:21.238Z,16.90
2018-06-14T18:35:49.563Z,16.90
2018-06-14T18:38:17.877Z,16.90
2018-06-14T18:40:46.184Z,16.90
2018-06-14T18:48:11.125Z,16.80
2018-06-14T18:50:39.519Z,16.80
2018-06-14T18:53:08.451Z,16.80
2018-06-14T18:55:36.819Z,16.80
2018-06-14T18:58:05.464Z,16.80
2018-06-14T19:00:33.964Z,16.70
2018-06-14T19:03:02.974Z,16.80
2018-06-14T19:05:31.887Z,16.80
2018-06-14T19:08:00.773Z,16.70
2018-06-14T19:10:29.701Z,16.70
2018-06-14T19:12:58.673Z,16.80
2018-06-14T19:15:27.611Z,16.70
2018-06-14T19:17:56.494Z,16.70
2018-06-14T19:22:53.759Z,16.70
2018-06-14T19:25:22.649Z,16.70
2018-06-14T19:27:51.435Z,16.70
2018-06-14T19:30:20.201Z,16.60
2018-06-14T19:32:49.095Z,16.70
2018-06-14T19:35:17.931Z,16.60
2018-06-14T19:37:46.447Z,16.50
2018-06-14T19:40:15.329Z,16.50
2018-06-14T19:42:44.177Z,16.40
2018-06-14T19:45:12.759Z,16.40
2018-06-14T19:47:41.066Z,16.30
2018-06-14T19:50:09.387Z,16.30
2018-06-14T19:55:05.744Z,16.20
2018-06-14T20:00:02.615Z,16.10
2018-06-14T20:02:30.935Z,16.00
2018-06-14T20:04:59.354Z,16.00
2018-06-14T20:07:28.355Z,16.00
2018-06-14T20:09:57.103Z,16.00
2018-06-14T20:12:25.681Z,15.90
2018-06-14T20:14:54.278Z,15.90
2018-06-14T20:17:22.794Z,16.00
2018-06-14T20:19:51.665Z,16.00
2018-06-14T20:22:20.197Z,15.90
2018-06-14T20:24:48.737Z,15.90
2018-06-14T20:27:17.323Z,15.90
2018-06-14T20:29:45.858Z,15.80
2018-06-14T20:32:14.407Z,15.80
2018-06-14T20:34:42.959Z,15.70
2018-06-14T20:37:11.461Z,15.80
2018-06-14T20:39:40.494Z,15.70
2018-06-14T20:42:08.901Z,15.70
2018-06-14T20:44:37.209Z,15.70
2018-06-14T20:47:05.529Z,15.80
2018-06-14T20:49:33.843Z,15.80
2018-06-14T20:52:02.173Z,15.80
2018-06-14T20:54:30.470Z,15.80
2018-06-14T20:56:58.772Z,15.70
2018-06-14T21:01:55.288Z,15.70
2018-06-14T21:04:23.676Z,15.70
2018-06-14T21:06:51.960Z,15.70
2018-06-14T21:09:20.339Z,15.70
2018-06-14T21:11:48.670Z,15.60
2018-06-14T21:14:16.990Z,15.70
2018-06-14T21:16:45.356Z,15.60
2018-06-14T21:19:13.674Z,15.70
2018-06-14T21:21:42.031Z,15.70
2018-06-14T21:24:10.332Z,15.70
2018-06-14T21:26:38.640Z,15.70
2018-06-14T21:29:07.036Z,15.70
2018-06-14T21:31:35.419Z,15.70
2018-06-14T21:34:03.764Z,15.60
2018-06-14T21:36:32.091Z,15.60
2018-06-14T21:39:00.420Z,15.60
2018-06-14T21:41:28.743Z,15.50
2018-06-14T21:43:57.082Z,15.60
2018-06-14T21:46:25.420Z,15.60
2018-06-14T21:48:54.227Z,15.60
2018-06-14T21:53:50.595Z,15.60
2018-06-14T21:56:18.901Z,15.60
2018-06-14T21:58:47.247Z,15.60
2018-06-14T22:01:15.525Z,15.60
2018-06-14T22:03:49.291Z,15.60
2018-06-14T22:06:17.585Z,15.60
2018-06-14T22:08:45.889Z,15.60
2018-06-14T22:11:14.215Z,15.60
2018-06-14T22:16:10.571Z,15.60
2018-06-14T22:18:38.943Z,15.60
2018-06-14T22:21:07.467Z,15.60
2018-06-14T22:23:35.785Z,15.70
2018-06-14T22:26:04.125Z,15.70
2018-06-14T22:28:34.147Z,15.70
2018-06-14T22:31:02.499Z,15.70
2018-06-14T22:33:42.079Z,15.70
2018-06-14T22:36:10.417Z,15.70
2018-06-14T22:38:38.748Z,15.60
2018-06-14T22:41:07.084Z,15.70
2018-06-14T22:43:35.422Z,15.70
2018-06-14T22:46:03.710Z,15.70
2018-06-14T22:48:32.013Z,15.70
2018-06-14T22:51:12.872Z,15.70
2018-06-14T22:53:41.167Z,15.80
2018-06-14T22:56:09.461Z,15.70
2018-06-14T22:58:37.762Z,15.80
2018-06-14T23:01:46.350Z,15.70
2018-06-14T23:04:16.184Z,15.70
2018-06-14T23:06:44.467Z,15.70
2018-06-14T23:10:26.714Z,15.70
2018-06-14T23:12:55.054Z,15.70
2018-06-14T23:15:23.362Z,15.70
2018-06-14T23:17:52.126Z,15.70
2018-06-14T23:20:22.354Z,15.60
2018-06-14T23:22:51.971Z,15.70
2018-06-14T23:25:21.198Z,15.60
2018-06-14T23:27:49.518Z,15.60
2018-06-14T23:30:18.104Z,15.60
2018-06-14T23:32:46.495Z,15.60
2018-06-14T23:37:42.903Z,15.60
2018-06-14T23:40:11.174Z,15.60
2018-06-14T23:42:39.566Z,15.60
2018-06-14T23:45:07.894Z,15.70
2018-06-14T23:47:36.231Z,15.60
2018-06-14T23:50:04.716Z,15.60
2018-06-14T23:52:33.032Z,15.60
2018-06-14T23:55:01.336Z,15.60
2018-06-14T23:57:29.625Z,15.60
2018-06-14T23:59:57.930Z,15.60
